Webcam Flughafen St.Gallen-Altenrhein

Live-Bilder und Zeitraffer LSZR / ACH.

 

Live aus Altenrhein
LIVE
LSZR 162150Z AUTO VRB01KT CAVOK M01/M02 Q1028
Zeitraffer heute
2019-02-16 00:14:22
LSZR 152250Z AUTO VRB01KT 9000 NCD M01/M02 Q1030
Zeitraffer gestern
2019-02-15 00:14:51
LSZR 142250Z AUTO 12003KT CAVOK M01/M01 Q1034
Zeitraffer vor 3 Tagen
2019-02-13 00:14:19
LSZR 122250Z AUTO VRB01KT CAVOK 01/M02 Q1036